Chang-hua, Taiwan
Current Conditions -  °F | °C
As of 3:30 PM on Thursday 23 Oct 2014 (Local Time) from RCMQ Reporting Station
Scattered Clouds Scattered Clouds  
Wind Chill: 77°   Ceiling: Unl
Heat Index: 79°   Visibility: 6mi
Dew Point: 63°   Wind: 12mph
Humidity: 61%   Direction: 350°N
Pressure: 29.94"   Gusts: 23mph
Location:  24.08°N, 120.53°E
Report Text: RCMQ 230730Z 35010G20KT 9999 FEW012 SCT100 25/17 Q1014 NOSIG RMK A2995
Loading
Personal Weather Stations






























Interactive Weather Map
Tropical Storm Tracking
New forecast layout! Learn more

10-Day Weather Forecast

Advertisements
Track Severe Weather on mobile